»·PEaware :: N40SF KSMX-KBFL

N40SF :: KSMX-KBFL

FLIGHT INFORMATION

Flight Status: Arrived
Operator: Privately registered:
United States
More flights under this callsign
Pilot: John D. (33176)
Aircraft: PIPER PA-28 CHEROKEE ARCHER
(P28A)
More flights by this aircraft type
Origin: KSMX Santa Maria Pub/Capt Hancock
United States
Destination: KBFL Meadows
United States
More flights between these airports :: More routes between these airports
Route:
File this flight plan on PilotEdge
Remarks:
Altitude:
(Current/Filed)
5,500ft
Speed:
(Current/Filed)
120kts
Departed: 15-Jan-21 10:10 AM
Arrived: 15-Jan-21 10:55 AM
Distance/Time
Traveled:
76nm/0:45
Distance/Time
To Go:
Arrived

Flight Plot

Page will automatically refresh every two minutes.


Map Options




Map Legend


Flown Route
Filed Route
Departure Airport
Arrival Airport
Navaid (VOR, NDB)
Fix

Horizontal Profiles

Position Reports

Time Latitude Longitude Heading Altitude Ground
Speed
15-Jan-21 09:59 34.898776 -120.448386 134 264ft 0kts
15-Jan-21 10:00 34.898776 -120.448386 134 264ft 0kts
15-Jan-21 10:01 34.898776 -120.448386 134 264ft 0kts
15-Jan-21 10:02 34.898776 -120.448386 134 264ft 0kts
15-Jan-21 10:03 34.898776 -120.448386 134 264ft 0kts
15-Jan-21 10:04 34.898776 -120.448386 134 264ft 0kts
15-Jan-21 10:05 34.898776 -120.448386 134 264ft 0kts
15-Jan-21 10:06 34.897404 -120.448843 151 264ft 14kts
15-Jan-21 10:07 34.894086 -120.445641 180 264ft 5kts
15-Jan-21 10:08 34.894071 -120.445642 180 264ft 0kts
15-Jan-21 10:09 34.898064 -120.452400 314 457ft 84kts
15-Jan-21 10:10 34.912862 -120.473496 312 1870ft 83kts
15-Jan-21 10:11 34.926826 -120.488047 32 3219ft 67kts
15-Jan-21 10:12 34.931440 -120.464673 85 4371ft 76kts
15-Jan-21 10:13 34.930161 -120.437846 90 5471ft 85kts
15-Jan-21 10:14 34.926164 -120.402664 99 5547ft 112kts
15-Jan-21 10:15 34.941367 -120.372445 85 5545ft 118kts
15-Jan-21 10:16 34.948050 -120.330969 70 5499ft 120kts
15-Jan-21 10:17 34.960736 -120.292172 65 5499ft 119kts
15-Jan-21 10:18 34.975206 -120.253559 64 5499ft 119kts
15-Jan-21 10:19 34.990073 -120.215099 63 5499ft 119kts
15-Jan-21 10:20 35.004951 -120.176922 63 5499ft 124kts
15-Jan-21 10:21 35.018951 -120.140850 61 5496ft 98kts
15-Jan-21 10:22 35.032987 -120.104928 63 5500ft 122kts
15-Jan-21 10:23 35.048024 -120.066232 63 5499ft 125kts
15-Jan-21 10:24 35.063933 -120.025347 62 5668ft 120kts
15-Jan-21 10:25 35.078566 -119.987845 62 6384ft 114kts
15-Jan-21 10:26 35.092547 -119.951778 62 7111ft 110kts
15-Jan-21 10:27 35.106473 -119.915785 63 7501ft 126kts
15-Jan-21 10:28 35.121538 -119.876464 63 7500ft 120kts
15-Jan-21 10:29 35.136080 -119.838743 63 7500ft 120kts
15-Jan-21 10:30 35.150622 -119.801011 63 7500ft 120kts
15-Jan-21 10:31 35.165043 -119.763560 63 7500ft 120kts
15-Jan-21 10:33 35.180008 -119.724653 63 7500ft 120kts
15-Jan-21 10:34 35.194659 -119.686519 63 7500ft 120kts
15-Jan-21 10:35 35.208900 -119.649406 63 7500ft 120kts
15-Jan-21 10:36 35.223140 -119.612254 63 7500ft 120kts
15-Jan-21 10:37 35.237334 -119.575260 63 7500ft 120kts
15-Jan-21 10:38 35.251525 -119.538187 63 7499ft 120kts
15-Jan-21 10:39 35.265787 -119.500850 63 7499ft 120kts
15-Jan-21 10:40 35.280191 -119.463097 63 7499ft 120kts
15-Jan-21 10:41 35.294356 -119.425927 63 7499ft 120kts
15-Jan-21 10:42 35.308501 -119.388767 63 7499ft 120kts
15-Jan-21 10:43 35.322644 -119.351571 63 7499ft 120kts
15-Jan-21 10:44 35.336747 -119.314434 64 7500ft 120kts
15-Jan-21 10:45 35.351019 -119.276806 64 7500ft 120kts
15-Jan-21 10:46 35.364582 -119.240887 64 7378ft 111kts
15-Jan-21 10:47 35.378890 -119.202880 65 6450ft 116kts
15-Jan-21 10:47 35.390870 -119.171179 65 5653ft 116kts
15-Jan-21 10:48 35.404888 -119.134000 65 4613ft 108kts
15-Jan-21 10:50 35.422483 -119.093706 61 2746ft 108kts
15-Jan-21 10:51 35.418173 -119.058096 134 1634ft 92kts
15-Jan-21 10:51 35.402394 -119.039404 139 1301ft 90kts
15-Jan-21 10:52 35.407675 -119.030225 327 1026ft 70kts
15-Jan-21 10:53 35.421760 -119.045236 319 739ft 68kts
15-Jan-21 10:54 35.430348 -119.055496 303 476ft 14kts
15-Jan-21 10:55 35.430078 -119.056324 131 473ft 11kts

Navigation Log

Ident Type
Flight plan parsing failed, navigation log unavailable